Time;durP1;ratioP1;P1;durP2;ratioP2;P2;SDS_P1;SDS_P2;PMS_P1;PMS_P2;Temp;Humidity;BMP_temperature;BMP_pressure;BME280_temperature;BME280_humidity;BME280_pressure;Samples;Min_cycle;Max_cycle;Signal;HPM_P1;HPM_P2
2022/07/04 00:00:35;;;;;;;6.22;2.10;;;;;;;;;;4957024;28;20081;-73
2022/07/04 00:03:21;;;;;;;5.07;1.40;;;;;;;;;;4993389;28;20225;-73
2022/07/04 00:06:07;;;;;;;4.45;1.80;;;;;;;;;;4954872;28;20093;-74
2022/07/04 00:08:52;;;;;;;3.38;1.70;;;;;;;;;;4952194;28;20027;-73
2022/07/04 00:11:38;;;;;;;4.55;1.20;;;;;;;;;;4949441;28;20144;-70
2022/07/04 00:14:23;;;;;;;2.88;1.38;;;;;;;;;;4947197;28;20406;-72
2022/07/04 00:17:09;;;;;;;4.40;1.45;;;;;;;;;;4996757;28;20089;-60
2022/07/04 00:19:55;;;;;;;3.78;1.65;;;;;;;;;;4962272;28;20493;-61
2022/07/04 00:22:40;;;;;;;3.47;1.58;;;;;;;;;;4947266;28;20031;-63
2022/07/04 00:25:26;;;;;;;3.38;1.40;;;;;;;;;;4957647;28;20522;-66
2022/07/04 00:28:11;;;;;;;2.13;1.25;;;;;;;;;;5010447;28;20063;-61
2022/07/04 00:30:57;;;;;;;2.67;1.45;;;;;;;;;;4957579;28;20024;-65
2022/07/04 00:33:43;;;;;;;2.85;1.52;;;;;;;;;;4948365;28;20074;-67
2022/07/04 00:36:28;;;;;;;3.92;1.45;;;;;;;;;;4955195;28;20070;-66
2022/07/04 00:39:14;;;;;;;4.07;1.65;;;;;;;;;;4947323;28;20064;-66
2022/07/04 00:41:59;;;;;;;2.22;1.35;;;;;;;;;;4958859;28;20095;-66
2022/07/04 00:44:45;;;;;;;2.75;1.63;;;;;;;;;;4993811;28;20020;-67
2022/07/04 00:47:30;;;;;;;4.15;1.67;;;;;;;;;;4962172;28;20432;-66
2022/07/04 00:50:16;;;;;;;2.00;1.42;;;;;;;;;;4949809;28;20050;-62
2022/07/04 00:53:02;;;;;;;2.15;1.35;;;;;;;;;;4972077;28;20031;-71
2022/07/04 00:55:47;;;;;;;3.58;1.75;;;;;;;;;;4965186;28;20092;-72
2022/07/04 00:58:33;;;;;;;3.92;1.92;;;;;;;;;;4982900;28;20487;-72
2022/07/04 01:01:22;;;;;;;4.68;1.58;;;;;;;;;;4943503;28;20039;-72
2022/07/04 01:04:07;;;;;;;1.90;1.30;;;;;;;;;;4955933;28;20425;-72
2022/07/04 01:06:53;;;;;;;1.92;1.60;;;;;;;;;;4947902;28;20081;-61
2022/07/04 01:09:39;;;;;;;2.72;1.48;;;;;;;;;;4963321;28;20097;-72
2022/07/04 01:12:26;;;;;;;3.30;1.42;;;;;;;;;;4948157;28;20062;-68
2022/07/04 01:15:11;;;;;;;4.10;1.60;;;;;;;;;;4987784;28;20021;-66
2022/07/04 01:17:57;;;;;;;4.35;1.85;;;;;;;;;;4957627;28;20417;-66
2022/07/04 01:20:43;;;;;;;2.10;1.75;;;;;;;;;;4951040;28;20031;-66
2022/07/04 01:23:29;;;;;;;6.45;1.50;;;;;;;;;;4966895;28;20058;-67
2022/07/04 01:26:15;;;;;;;3.63;1.73;;;;;;;;;;4954644;28;20051;-62
2022/07/04 01:29:00;;;;;;;4.63;1.40;;;;;;;;;;4961776;28;20023;-72
2022/07/04 01:31:46;;;;;;;3.55;1.77;;;;;;;;;;4991526;28;20094;-72
2022/07/04 01:34:31;;;;;;;5.43;1.90;;;;;;;;;;4946496;28;20065;-73
2022/07/04 01:37:17;;;;;;;4.60;1.90;;;;;;;;;;4952559;28;20470;-72
2022/07/04 01:40:03;;;;;;;6.07;2.00;;;;;;;;;;4957941;28;20024;-72
2022/07/04 01:42:49;;;;;;;5.13;1.77;;;;;;;;;;4948923;28;20117;-73
2022/07/04 01:45:37;;;;;;;3.17;1.70;;;;;;;;;;4953748;28;20071;-72
2022/07/04 01:48:22;;;;;;;2.80;1.50;;;;;;;;;;4957068;28;20098;-67
2022/07/04 01:51:08;;;;;;;3.72;1.70;;;;;;;;;;4953890;28;20390;-67
2022/07/04 01:53:53;;;;;;;3.05;1.30;;;;;;;;;;4961656;28;20038;-66
2022/07/04 01:56:39;;;;;;;4.63;2.03;;;;;;;;;;4971194;28;20024;-67
2022/07/04 02:01:29;;;;;;;2.13;1.40;;;;;;;;;;4966339;28;20126;-66
2022/07/04 02:02:30;;;;;;;2.50;1.75;;;;;;;;;;4951914;28;20070;-75
2022/07/04 02:05:16;;;;;;;3.95;1.70;;;;;;;;;;4983015;28;20032;-60
2022/07/04 02:08:02;;;;;;;6.25;1.60;;;;;;;;;;4945424;28;20110;-61
2022/07/04 02:10:47;;;;;;;6.82;1.63;;;;;;;;;;4947945;28;20028;-62
2022/07/04 02:13:34;;;;;;;3.78;1.75;;;;;;;;;;4949393;28;20038;-61
2022/07/04 02:16:19;;;;;;;3.45;1.50;;;;;;;;;;4967572;28;20031;-60
2022/07/04 02:19:05;;;;;;;4.22;1.70;;;;;;;;;;4945888;28;20057;-61
2022/07/04 02:21:51;;;;;;;2.00;1.50;;;;;;;;;;4950883;28;20087;-73
2022/07/04 02:24:37;;;;;;;4.05;1.88;;;;;;;;;;4956033;28;20035;-69
2022/07/04 02:27:22;;;;;;;4.97;1.70;;;;;;;;;;4942715;28;20051;-67
2022/07/04 02:30:08;;;;;;;4.30;1.73;;;;;;;;;;4995607;28;20029;-65
2022/07/04 02:32:54;;;;;;;3.65;1.80;;;;;;;;;;4970157;28;20506;-67
2022/07/04 02:35:39;;;;;;;2.78;1.70;;;;;;;;;;4982107;28;20042;-67
2022/07/04 02:38:25;;;;;;;3.65;1.48;;;;;;;;;;4946304;28;20493;-67
2022/07/04 02:41:10;;;;;;;3.80;1.88;;;;;;;;;;4951158;28;20034;-71
2022/07/04 02:43:56;;;;;;;4.60;1.70;;;;;;;;;;4962863;28;20033;-65
2022/07/04 02:46:41;;;;;;;4.72;1.42;;;;;;;;;;4949147;28;21695;-67
2022/07/04 02:49:28;;;;;;;5.13;1.50;;;;;;;;;;4948626;28;20053;-67
2022/07/04 02:52:14;;;;;;;4.57;2.40;;;;;;;;;;4947585;28;20038;-66
2022/07/04 02:54:59;;;;;;;4.20;1.90;;;;;;;;;;4954497;28;20090;-65
2022/07/04 02:57:45;;;;;;;3.78;1.95;;;;;;;;;;4976992;28;20471;-71
2022/07/04 03:00:30;;;;;;;6.30;1.75;;;;;;;;;;4946454;28;20030;-61
2022/07/04 03:03:16;;;;;;;5.18;2.05;;;;;;;;;;4975417;28;20027;-62
2022/07/04 03:06:02;;;;;;;7.00;2.03;;;;;;;;;;4997610;28;20031;-62
2022/07/04 03:08:47;;;;;;;2.38;1.40;;;;;;;;;;4973950;28;20055;-61
2022/07/04 03:11:33;;;;;;;4.43;2.97;;;;;;;;;;4953956;28;20316;-61
2022/07/04 03:14:19;;;;;;;6.28;1.73;;;;;;;;;;4947700;28;20082;-61
2022/07/04 03:17:04;;;;;;;5.18;1.75;;;;;;;;;;4948311;28;20073;-71
2022/07/04 03:19:50;;;;;;;7.85;2.03;;;;;;;;;;4951624;28;20447;-72
2022/07/04 03:22:36;;;;;;;2.85;1.70;;;;;;;;;;4980358;28;20475;-71
2022/07/04 03:25:21;;;;;;;5.05;1.70;;;;;;;;;;4950254;28;20031;-78
2022/07/04 03:28:07;;;;;;;3.20;1.80;;;;;;;;;;4963070;28;20066;-72
2022/07/04 03:30:53;;;;;;;4.78;1.65;;;;;;;;;;4953394;28;20027;-73
2022/07/04 03:33:38;;;;;;;2.92;1.45;;;;;;;;;;5018065;28;20040;-74
2022/07/04 03:36:24;;;;;;;2.67;1.45;;;;;;;;;;4945908;28;20031;-66
2022/07/04 03:39:09;;;;;;;2.95;1.52;;;;;;;;;;4986720;28;20030;-67
2022/07/04 03:41:55;;;;;;;4.53;2.22;;;;;;;;;;4953947;28;20030;-68
2022/07/04 03:44:40;;;;;;;8.15;2.00;;;;;;;;;;5022143;28;20468;-66
2022/07/04 03:47:26;;;;;;;3.58;1.80;;;;;;;;;;4957287;28;20035;-66
2022/07/04 03:50:11;;;;;;;5.78;1.75;;;;;;;;;;4959166;28;20390;-66
2022/07/04 03:52:57;;;;;;;3.40;1.85;;;;;;;;;;4941708;28;20035;-66
2022/07/04 03:55:43;;;;;;;4.43;1.52;;;;;;;;;;4950243;28;20506;-71
2022/07/04 03:58:28;;;;;;;4.40;1.55;;;;;;;;;;4951376;28;20080;-70
2022/07/04 04:01:17;;;;;;;3.38;1.70;;;;;;;;;;4990570;28;20029;-71
2022/07/04 04:07:24;;;;;;;3.30;1.95;;;;;;;;;;5013748;28;19909;-71
2022/07/04 04:10:10;;;;;;;7.07;1.98;;;;;;;;;;5001160;28;20094;-70
2022/07/04 04:12:56;;;;;;;2.42;1.60;;;;;;;;;;4945020;28;20135;-59
2022/07/04 04:15:41;;;;;;;4.22;1.80;;;;;;;;;;4941437;28;20035;-60
2022/07/04 04:18:27;;;;;;;4.70;1.63;;;;;;;;;;4949380;28;20106;-59
2022/07/04 04:21:13;;;;;;;3.65;1.80;;;;;;;;;;4950028;28;20034;-60
2022/07/04 04:23:58;;;;;;;2.10;1.60;;;;;;;;;;4955722;28;20027;-58
2022/07/04 04:26:44;;;;;;;7.65;2.30;;;;;;;;;;4945634;28;20024;-59
2022/07/04 04:29:29;;;;;;;4.47;2.15;;;;;;;;;;4953258;28;20527;-63
2022/07/04 04:32:15;;;;;;;5.25;2.17;;;;;;;;;;4967440;28;20108;-73
2022/07/04 04:35:00;;;;;;;4.53;1.90;;;;;;;;;;4964588;28;20482;-61
2022/07/04 04:37:46;;;;;;;6.68;2.03;;;;;;;;;;4957422;28;20034;-63
2022/07/04 04:40:31;;;;;;;4.25;1.85;;;;;;;;;;4956236;28;20054;-62
2022/07/04 04:43:17;;;;;;;6.55;2.15;;;;;;;;;;4956597;28;20076;-62
2022/07/04 04:46:02;;;;;;;2.45;1.88;;;;;;;;;;4949595;28;20027;-63
2022/07/04 04:48:48;;;;;;;3.70;2.45;;;;;;;;;;4949599;28;20047;-74
2022/07/04 04:51:34;;;;;;;3.85;1.90;;;;;;;;;;4955557;28;20023;-73
2022/07/04 04:54:20;;;;;;;5.07;2.00;;;;;;;;;;4952193;28;20046;-74
2022/07/04 04:57:05;;;;;;;7.03;2.17;;;;;;;;;;4952253;28;20502;-71
2022/07/04 04:59:51;;;;;;;4.78;1.95;;;;;;;;;;4952870;28;20030;-73
2022/07/04 05:02:37;;;;;;;3.53;1.90;;;;;;;;;;4953366;28;20039;-74
2022/07/04 05:05:23;;;;;;;5.32;2.55;;;;;;;;;;4942258;28;20113;-74
2022/07/04 05:08:08;;;;;;;6.85;2.40;;;;;;;;;;4956650;28;20286;-62
2022/07/04 05:10:54;;;;;;;7.10;2.40;;;;;;;;;;4951226;28;20012;-73
2022/07/04 05:13:40;;;;;;;4.07;2.13;;;;;;;;;;4955530;28;20114;-73
2022/07/04 05:16:25;;;;;;;4.55;2.28;;;;;;;;;;4958950;28;20106;-74
2022/07/04 05:19:11;;;;;;;6.20;2.42;;;;;;;;;;4948728;28;20156;-75
2022/07/04 05:21:56;;;;;;;7.03;2.38;;;;;;;;;;4948425;28;20031;-73
2022/07/04 05:24:42;;;;;;;5.00;1.80;;;;;;;;;;4951227;28;20643;-76
2022/07/04 05:27:28;;;;;;;5.78;2.33;;;;;;;;;;4960326;28;21418;-67
2022/07/04 05:30:13;;;;;;;4.43;2.20;;;;;;;;;;4963254;28;20023;-77
2022/07/04 05:33:00;;;;;;;8.95;2.38;;;;;;;;;;4951217;28;20033;-77
2022/07/04 05:35:45;;;;;;;5.15;2.58;;;;;;;;;;4949595;28;20661;-74
2022/07/04 05:38:31;;;;;;;4.30;2.10;;;;;;;;;;4955657;28;20063;-75
2022/07/04 05:41:17;;;;;;;2.95;1.63;;;;;;;;;;4944801;28;20077;-76
2022/07/04 05:44:02;;;;;;;7.03;2.13;;;;;;;;;;4949064;28;20134;-68
2022/07/04 05:46:48;;;;;;;6.10;1.80;;;;;;;;;;4949803;28;20102;-63
2022/07/04 05:49:33;;;;;;;6.68;1.90;;;;;;;;;;4952079;28;20188;-65
2022/07/04 05:52:19;;;;;;;5.93;1.98;;;;;;;;;;4952616;28;20035;-62
2022/07/04 05:55:06;;;;;;;4.25;1.67;;;;;;;;;;4992456;28;20122;-63
2022/07/04 05:57:53;;;;;;;4.45;1.88;;;;;;;;;;4949578;28;20039;-62
2022/07/04 06:00:39;;;;;;;6.85;1.67;;;;;;;;;;4952387;28;20435;-64
2022/07/04 06:03:25;;;;;;;3.72;1.50;;;;;;;;;;4947889;28;20430;-60
2022/07/04 06:06:10;;;;;;;4.72;1.63;;;;;;;;;;4947299;28;20023;-62
2022/07/04 06:08:56;;;;;;;7.82;1.73;;;;;;;;;;4946575;28;20034;-63
2022/07/04 06:11:42;;;;;;;4.05;1.90;;;;;;;;;;4952088;28;20477;-67
2022/07/04 06:14:28;;;;;;;3.67;1.83;;;;;;;;;;4958851;28;20045;-64
2022/07/04 06:17:13;;;;;;;5.18;1.50;;;;;;;;;;4950930;28;20220;-64
2022/07/04 06:19:59;;;;;;;4.40;1.88;;;;;;;;;;4980248;28;20017;-63
2022/07/04 06:22:46;;;;;;;3.53;1.42;;;;;;;;;;4950507;28;20448;-66
2022/07/04 06:25:32;;;;;;;5.32;1.50;;;;;;;;;;4949476;28;20043;-67
2022/07/04 06:28:18;;;;;;;6.53;1.70;;;;;;;;;;4948661;28;20023;-69
2022/07/04 06:31:03;;;;;;;6.65;1.98;;;;;;;;;;4950996;28;20433;-67
2022/07/04 06:37:03;;;;;;;3.97;2.17;;;;;;;;;;4977983;28;20120;-68
2022/07/04 06:39:49;;;;;;;8.27;1.85;;;;;;;;;;4950336;28;20327;-63
2022/07/04 06:42:34;;;;;;;3.35;1.90;;;;;;;;;;4952048;28;20083;-74
2022/07/04 06:45:20;;;;;;;5.70;1.95;;;;;;;;;;4947779;28;20401;-74
2022/07/04 06:48:06;;;;;;;2.47;1.70;;;;;;;;;;4949114;28;20406;-73
2022/07/04 06:50:51;;;;;;;4.28;1.85;;;;;;;;;;4946404;28;20066;-75
2022/07/04 06:53:37;;;;;;;3.63;1.40;;;;;;;;;;4947798;28;20050;-74
2022/07/04 06:56:22;;;;;;;6.57;1.70;;;;;;;;;;4960513;28;20024;-64
2022/07/04 06:59:08;;;;;;;4.32;1.73;;;;;;;;;;4951450;28;20042;-63
2022/07/04 07:01:54;;;;;;;6.05;1.75;;;;;;;;;;4950924;28;20023;-77
2022/07/04 07:04:41;;;;;;;4.25;2.03;;;;;;;;;;4949032;28;20026;-76
2022/07/04 07:07:27;;;;;;;4.72;1.55;;;;;;;;;;4954863;28;20062;-79
2022/07/04 07:10:13;;;;;;;2.92;1.73;;;;;;;;;;4946745;28;20029;-80
2022/07/04 07:12:59;;;;;;;4.70;1.67;;;;;;;;;;4963954;28;20027;-80
2022/07/04 07:15:45;;;;;;;4.82;1.80;;;;;;;;;;4950863;28;20023;-74
2022/07/04 07:18:30;;;;;;;7.38;2.33;;;;;;;;;;4949556;28;20394;-65
2022/07/04 07:21:16;;;;;;;5.95;1.70;;;;;;;;;;4953455;28;20042;-63
2022/07/04 07:24:03;;;;;;;2.80;1.65;;;;;;;;;;4950764;28;20046;-65
2022/07/04 07:26:49;;;;;;;3.00;1.55;;;;;;;;;;4950839;28;20390;-64
2022/07/04 07:29:35;;;;;;;4.22;1.95;;;;;;;;;;4948146;28;20043;-65
2022/07/04 07:32:20;;;;;;;4.88;1.63;;;;;;;;;;4949861;28;20031;-64
2022/07/04 07:35:06;;;;;;;6.70;1.85;;;;;;;;;;4949182;28;20043;-75
2022/07/04 07:37:52;;;;;;;3.88;2.22;;;;;;;;;;4948834;28;20023;-67
2022/07/04 07:40:37;;;;;;;4.10;2.22;;;;;;;;;;4949960;28;20718;-64
2022/07/04 07:43:23;;;;;;;3.70;1.98;;;;;;;;;;4950393;28;20062;-65
2022/07/04 07:46:08;;;;;;;5.55;1.83;;;;;;;;;;4949533;28;20031;-65
2022/07/04 07:48:54;;;;;;;2.80;1.73;;;;;;;;;;4943794;28;20051;-65
2022/07/04 07:51:40;;;;;;;4.47;1.95;;;;;;;;;;4943357;28;20410;-75
2022/07/04 07:54:25;;;;;;;8.10;1.98;;;;;;;;;;4954216;28;20471;-62
2022/07/04 07:57:11;;;;;;;6.68;1.88;;;;;;;;;;4948694;28;20020;-70
2022/07/04 07:59:56;;;;;;;2.33;1.40;;;;;;;;;;4947168;28;20023;-69
2022/07/04 08:05:46;;;;;;;2.20;1.60;;;;;;;;;;4942612;28;20031;-71
2022/07/04 08:08:32;;;;;;;7.43;1.98;;;;;;;;;;4947669;28;20038;-70
2022/07/04 08:11:18;;;;;;;3.63;1.77;;;;;;;;;;4951571;28;20028;-74
2022/07/04 08:14:06;;;;;;;4.70;1.80;;;;;;;;;;4945636;28;20096;-62
2022/07/04 08:16:52;;;;;;;3.53;1.52;;;;;;;;;;4949939;28;20015;-62
2022/07/04 08:19:37;;;;;;;4.45;2.00;;;;;;;;;;4940963;28;20038;-64
2022/07/04 08:22:23;;;;;;;3.75;1.60;;;;;;;;;;4945285;28;20058;-61
2022/07/04 08:25:08;;;;;;;7.57;1.67;;;;;;;;;;4945861;28;20026;-61
2022/07/04 08:27:54;;;;;;;6.47;2.35;;;;;;;;;;4948146;28;20035;-62
2022/07/04 08:30:39;;;;;;;5.93;1.77;;;;;;;;;;4949217;28;20027;-62
2022/07/04 08:33:25;;;;;;;2.38;1.85;;;;;;;;;;4947735;28;20038;-73
2022/07/04 08:36:11;;;;;;;7.25;2.25;;;;;;;;;;4946978;28;20054;-75
2022/07/04 08:38:56;;;;;;;5.93;2.13;;;;;;;;;;4947946;28;20121;-75
2022/07/04 08:41:42;;;;;;;6.75;2.10;;;;;;;;;;4949080;28;20069;-76
2022/07/04 08:44:28;;;;;;;3.38;2.15;;;;;;;;;;4950131;28;20549;-76
2022/07/04 08:47:17;;;;;;;4.82;1.85;;;;;;;;;;4949169;28;20021;-80
2022/07/04 08:50:02;;;;;;;4.53;1.80;;;;;;;;;;4933195;28;20055;-84
2022/07/04 08:52:53;;;;;;;7.22;1.85;;;;;;;;;;4934883;28;20023;-81
2022/07/04 08:58:47;;;;;;;5.57;2.17;;;;;;;;;;4941422;28;20023;-81
2022/07/04 09:01:33;;;;;;;3.80;1.92;;;;;;;;;;4939110;28;20403;-80
2022/07/04 09:04:19;;;;;;;7.32;2.33;;;;;;;;;;4950214;28;20031;-80
2022/07/04 09:07:05;;;;;;;7.40;1.90;;;;;;;;;;5014866;28;20475;-78
2022/07/04 09:09:51;;;;;;;4.65;1.90;;;;;;;;;;4949548;28;20386;-75
2022/07/04 09:12:36;;;;;;;5.70;2.03;;;;;;;;;;4949342;28;20091;-75
2022/07/04 09:15:22;;;;;;;3.03;1.50;;;;;;;;;;4944116;28;20118;-74
2022/07/04 09:18:26;;;;;;;4.32;2.28;;;;;;;;;;4944047;28;20030;-76
2022/07/04 09:21:12;;;;;;;6.85;2.53;;;;;;;;;;4939787;28;20119;-75
2022/07/04 09:23:58;;;;;;;6.20;2.92;;;;;;;;;;4946737;28;20069;-75
2022/07/04 09:26:44;;;;;;;5.00;2.15;;;;;;;;;;4949063;28;20076;-75
2022/07/04 09:29:30;;;;;;;7.43;2.15;;;;;;;;;;4954368;28;20058;-76
2022/07/04 09:32:23;;;;;;;5.75;2.33;;;;;;;;;;4947954;28;20032;-75
2022/07/04 09:35:14;;;;;;;4.68;1.83;;;;;;;;;;4949162;28;20043;-75
2022/07/04 09:38:03;;;;;;;4.78;1.77;;;;;;;;;;4942429;28;20039;-74
2022/07/04 09:44:02;;;;;;;5.47;1.70;;;;;;;;;;4955908;28;20036;-75
2022/07/04 09:46:48;;;;;;;4.82;1.98;;;;;;;;;;4951535;28;20077;-73
2022/07/04 09:49:33;;;;;;;4.55;1.88;;;;;;;;;;4952999;28;20105;-74
2022/07/04 09:52:19;;;;;;;4.25;2.00;;;;;;;;;;4948439;28;20719;-73
2022/07/04 09:55:07;;;;;;;3.95;1.60;;;;;;;;;;4952649;28;20057;-73
2022/07/04 09:57:54;;;;;;;5.15;1.80;;;;;;;;;;4957250;28;20019;-74
2022/07/04 10:00:42;;;;;;;6.85;2.55;;;;;;;;;;4954223;28;20457;-73
2022/07/04 10:03:30;;;;;;;5.65;1.80;;;;;;;;;;4950966;28;20489;-80
2022/07/04 10:06:15;;;;;;;2.42;1.95;;;;;;;;;;4951873;28;20023;-76
2022/07/04 10:09:17;;;;;;;3.78;1.77;;;;;;;;;;4945488;28;20058;-76
2022/07/04 10:12:03;;;;;;;3.92;1.80;;;;;;;;;;4955257;28;20061;-75
2022/07/04 10:14:49;;;;;;;5.05;1.73;;;;;;;;;;4953224;28;20038;-76
2022/07/04 10:17:34;;;;;;;9.93;2.22;;;;;;;;;;4956465;28;20429;-76
2022/07/04 10:20:20;;;;;;;5.47;2.25;;;;;;;;;;4954573;28;20034;-80
2022/07/04 10:23:06;;;;;;;5.60;1.88;;;;;;;;;;4953568;28;20096;-75
2022/07/04 10:25:53;;;;;;;2.72;1.60;;;;;;;;;;4951665;28;20023;-76
2022/07/04 10:28:39;;;;;;;4.95;1.70;;;;;;;;;;4955227;28;20034;-77
2022/07/04 10:31:29;;;;;;;6.90;2.25;;;;;;;;;;4947433;28;20020;-76
2022/07/04 10:34:14;;;;;;;2.20;1.65;;;;;;;;;;4948545;28;20495;-76
2022/07/04 10:37:00;;;;;;;4.78;1.90;;;;;;;;;;4947481;28;20024;-74
2022/07/04 10:39:46;;;;;;;4.88;1.92;;;;;;;;;;4942872;28;20030;-77
2022/07/04 10:42:31;;;;;;;5.47;1.77;;;;;;;;;;4949869;28;20028;-79
2022/07/04 10:45:32;;;;;;;5.88;1.70;;;;;;;;;;4949992;28;20077;-79
2022/07/04 10:48:22;;;;;;;5.65;1.60;;;;;;;;;;4949336;28;20073;-81
2022/07/04 10:51:08;;;;;;;4.43;2.15;;;;;;;;;;4950418;28;20410;-80
2022/07/04 10:53:58;;;;;;;5.30;1.80;;;;;;;;;;4949337;28;20071;-79
2022/07/04 10:56:50;;;;;;;3.05;1.63;;;;;;;;;;4951015;28;20367;-74
2022/07/04 10:59:35;;;;;;;6.57;1.75;;;;;;;;;;4953401;28;20409;-81
2022/07/04 11:02:22;;;;;;;3.63;1.55;;;;;;;;;;4955281;28;20394;-80
2022/07/04 11:05:09;;;;;;;4.28;1.92;;;;;;;;;;4951186;28;20020;-81
2022/07/04 11:07:55;;;;;;;6.38;1.85;;;;;;;;;;4954765;28;20054;-80
2022/07/04 11:10:41;;;;;;;5.25;1.58;;;;;;;;;;4938878;28;20522;-81
2022/07/04 11:13:26;;;;;;;6.53;2.42;;;;;;;;;;4950678;28;20047;-80
2022/07/04 11:16:12;;;;;;;3.85;1.83;;;;;;;;;;4952112;28;20023;-76
2022/07/04 11:18:58;;;;;;;4.38;1.83;;;;;;;;;;4952520;28;20034;-72
2022/07/04 11:21:44;;;;;;;6.50;1.92;;;;;;;;;;4952414;28;20023;-73
2022/07/04 11:24:30;;;;;;;13.82;2.67;;;;;;;;;;4950646;28;20394;-74
2022/07/04 11:27:15;;;;;;;4.18;2.03;;;;;;;;;;4949938;28;20024;-73
2022/07/04 11:30:01;;;;;;;4.30;1.80;;;;;;;;;;4952581;28;20461;-72
2022/07/04 11:32:46;;;;;;;5.05;1.73;;;;;;;;;;4946250;28;20065;-74
2022/07/04 11:35:32;;;;;;;6.43;2.50;;;;;;;;;;4951928;28;20039;-81
2022/07/04 11:38:18;;;;;;;3.63;2.00;;;;;;;;;;4950629;28;20039;-74
2022/07/04 11:47:20;;;;;;;6.75;2.13;;;;;;;;;;4954349;28;20482;-74
2022/07/04 11:50:10;;;;;;;6.47;2.42;;;;;;;;;;4942591;28;20071;-75
2022/07/04 11:52:56;;;;;;;3.88;2.13;;;;;;;;;;4954740;28;20097;-76
2022/07/04 11:55:52;;;;;;;9.40;2.08;;;;;;;;;;4949126;28;20050;-78
2022/07/04 11:58:44;;;;;;;3.80;1.92;;;;;;;;;;4936675;28;20035;-78
2022/07/04 12:01:29;;;;;;;2.92;1.77;;;;;;;;;;4949783;28;20109;-78
2022/07/04 12:04:16;;;;;;;4.43;2.10;;;;;;;;;;4950597;28;20023;-76
2022/07/04 12:07:07;;;;;;;9.13;2.33;;;;;;;;;;4950274;28;20023;-78
2022/07/04 12:09:54;;;;;;;6.03;2.33;;;;;;;;;;4955107;28;20115;-75
2022/07/04 12:12:52;;;;;;;5.95;2.13;;;;;;;;;;4949848;28;20449;-74
2022/07/04 12:15:45;;;;;;;9.50;2.03;;;;;;;;;;4938638;28;20402;-76
2022/07/04 12:18:33;;;;;;;4.05;1.83;;;;;;;;;;4948776;28;20028;-75
2022/07/04 12:21:22;;;;;;;4.82;2.30;;;;;;;;;;4944321;28;20062;-75
2022/07/04 12:24:08;;;;;;;4.20;1.67;;;;;;;;;;4938851;28;20027;-73
2022/07/04 12:26:55;;;;;;;4.40;1.80;;;;;;;;;;4949228;28;20035;-75
2022/07/04 12:29:45;;;;;;;3.50;1.80;;;;;;;;;;4951925;28;20555;-75
2022/07/04 12:32:44;;;;;;;3.13;1.58;;;;;;;;;;4953743;28;20049;-77
2022/07/04 12:35:36;;;;;;;9.05;2.08;;;;;;;;;;4952055;28;20494;-77
2022/07/04 12:38:27;;;;;;;6.07;2.22;;;;;;;;;;4949051;28;20514;-78
2022/07/04 12:41:15;;;;;;;3.42;1.70;;;;;;;;;;5010191;28;20015;-76
2022/07/04 12:44:01;;;;;;;4.78;2.03;;;;;;;;;;4947006;28;20034;-78
2022/07/04 12:46:47;;;;;;;3.38;1.92;;;;;;;;;;4947911;28;20024;-78
2022/07/04 12:49:33;;;;;;;4.88;1.83;;;;;;;;;;4949194;28;20054;-74
2022/07/04 12:52:18;;;;;;;7.53;1.65;;;;;;;;;;4948097;28;20024;-73
2022/07/04 12:55:09;;;;;;;4.53;1.98;;;;;;;;;;4949005;28;20035;-75
2022/07/04 12:57:55;;;;;;;5.38;1.90;;;;;;;;;;5020483;28;20021;-74
2022/07/04 13:00:41;;;;;;;5.97;2.03;;;;;;;;;;4949474;28;20023;-74
2022/07/04 13:03:26;;;;;;;5.80;2.15;;;;;;;;;;5006203;28;20027;-74
2022/07/04 13:06:12;;;;;;;9.57;1.92;;;;;;;;;;4942175;28;20035;-75
2022/07/04 13:08:58;;;;;;;3.97;1.63;;;;;;;;;;4940010;28;20106;-73
2022/07/04 13:14:47;;;;;;;4.35;1.73;;;;;;;;;;5028516;28;20033;-73
2022/07/04 13:17:33;;;;;;;3.90;1.83;;;;;;;;;;4953106;28;20436;-74
2022/07/04 13:20:19;;;;;;;2.65;1.70;;;;;;;;;;4953372;28;20030;-73
2022/07/04 13:23:05;;;;;;;2.30;1.52;;;;;;;;;;4953440;28;20076;-73
2022/07/04 13:25:50;;;;;;;4.95;1.50;;;;;;;;;;4951340;28;20181;-78
2022/07/04 13:28:36;;;;;;;6.30;1.90;;;;;;;;;;4950942;28;20027;-80
2022/07/04 13:31:21;;;;;;;5.85;1.80;;;;;;;;;;4952133;28;20027;-81
2022/07/04 13:34:07;;;;;;;2.63;1.60;;;;;;;;;;4949935;28;20030;-80
2022/07/04 13:36:54;;;;;;;3.70;1.58;;;;;;;;;;4951420;28;20031;-79
2022/07/04 13:39:40;;;;;;;3.95;1.67;;;;;;;;;;4956836;28;20118;-80
2022/07/04 13:45:30;;;;;;;3.92;1.30;;;;;;;;;;4954908;28;20019;-79
2022/07/04 13:48:15;;;;;;;2.60;1.60;;;;;;;;;;4949427;28;20079;-78
2022/07/04 13:51:01;;;;;;;3.88;1.83;;;;;;;;;;4940917;28;20028;-78
2022/07/04 13:53:47;;;;;;;4.35;1.80;;;;;;;;;;4950410;28;20563;-79
2022/07/04 13:56:33;;;;;;;2.53;1.50;;;;;;;;;;4948303;28;20015;-80
2022/07/04 13:59:19;;;;;;;6.32;2.10;;;;;;;;;;4964109;28;20057;-79
2022/07/04 14:02:04;;;;;;;5.88;1.85;;;;;;;;;;4948345;28;20043;-75
2022/07/04 14:04:50;;;;;;;4.25;1.80;;;;;;;;;;4951161;28;20031;-73
2022/07/04 14:07:36;;;;;;;4.60;1.67;;;;;;;;;;4955660;28;20034;-74
2022/07/04 14:10:22;;;;;;;5.10;1.45;;;;;;;;;;4956738;28;20034;-73
2022/07/04 14:13:07;;;;;;;6.15;1.88;;;;;;;;;;4952274;28;20466;-73
2022/07/04 14:15:53;;;;;;;4.80;1.65;;;;;;;;;;4950774;28;20373;-77
2022/07/04 14:18:38;;;;;;;3.60;1.90;;;;;;;;;;4955587;28;20387;-80
2022/07/04 14:21:24;;;;;;;9.20;1.88;;;;;;;;;;4950861;28;20030;-74
2022/07/04 14:24:10;;;;;;;4.13;1.95;;;;;;;;;;4953515;28;20106;-73
2022/07/04 14:26:55;;;;;;;6.13;2.63;;;;;;;;;;4951729;28;20028;-73
2022/07/04 14:29:41;;;;;;;4.35;1.75;;;;;;;;;;4953652;28;20035;-73
2022/07/04 14:32:26;;;;;;;2.65;1.75;;;;;;;;;;4952511;28;20039;-73
2022/07/04 14:35:13;;;;;;;4.80;1.88;;;;;;;;;;4953273;28;20483;-76
2022/07/04 14:37:58;;;;;;;2.78;1.73;;;;;;;;;;4950029;28;20494;-79
2022/07/04 14:40:46;;;;;;;5.85;1.77;;;;;;;;;;4950427;28;20393;-79
2022/07/04 14:43:31;;;;;;;7.78;1.95;;;;;;;;;;4952748;28;20546;-80
2022/07/04 14:46:17;;;;;;;3.38;1.80;;;;;;;;;;4950914;28;20031;-80
2022/07/04 14:49:02;;;;;;;8.88;2.58;;;;;;;;;;4952092;28;20055;-79
2022/07/04 14:51:48;;;;;;;8.00;1.85;;;;;;;;;;4953138;28;20030;-79
2022/07/04 14:54:34;;;;;;;5.30;1.80;;;;;;;;;;4949952;28;20124;-80
2022/07/04 14:57:19;;;;;;;5.25;2.03;;;;;;;;;;4952776;28;20035;-78
2022/07/04 15:00:06;;;;;;;4.88;1.85;;;;;;;;;;4952100;28;20057;-78
2022/07/04 15:02:51;;;;;;;4.35;2.03;;;;;;;;;;4949887;28;20066;-77
2022/07/04 15:05:37;;;;;;;5.65;2.10;;;;;;;;;;4947971;28;20051;-77
2022/07/04 15:08:22;;;;;;;7.88;2.47;;;;;;;;;;4951250;28;20467;-77
2022/07/04 15:11:08;;;;;;;4.25;1.90;;;;;;;;;;4952395;28;20019;-77
2022/07/04 15:13:53;;;;;;;7.30;1.98;;;;;;;;;;4938975;28;20038;-74
2022/07/04 15:16:39;;;;;;;3.67;1.77;;;;;;;;;;4952115;28;20023;-73
2022/07/04 15:19:25;;;;;;;7.53;2.05;;;;;;;;;;4950588;28;20103;-74
2022/07/04 15:25:14;;;;;;;2.80;1.70;;;;;;;;;;4953099;28;20028;-74
2022/07/04 15:28:00;;;;;;;4.53;1.83;;;;;;;;;;4950291;28;20398;-76
2022/07/04 15:30:46;;;;;;;2.42;1.65;;;;;;;;;;4958581;28;20035;-74
2022/07/04 15:33:31;;;;;;;5.32;1.80;;;;;;;;;;4949526;28;20465;-79
2022/07/04 15:36:17;;;;;;;1.88;1.10;;;;;;;;;;4945262;28;20035;-62
2022/07/04 15:39:07;;;;;;;6.78;1.80;;;;;;;;;;4962098;28;20027;-63
2022/07/04 15:41:53;;;;;;;3.38;1.60;;;;;;;;;;4961122;28;20397;-62
2022/07/04 15:44:39;;;;;;;4.90;1.88;;;;;;;;;;4953188;28;20028;-62
2022/07/04 15:47:24;;;;;;;4.75;1.80;;;;;;;;;;4951049;28;20055;-63
2022/07/04 15:50:10;;;;;;;4.82;2.03;;;;;;;;;;4946053;28;20085;-68
2022/07/04 15:52:56;;;;;;;3.15;1.70;;;;;;;;;;4949798;28;20030;-78
2022/07/04 15:55:41;;;;;;;5.22;1.45;;;;;;;;;;4951718;28;20039;-63
2022/07/04 15:58:27;;;;;;;2.90;1.65;;;;;;;;;;4950763;28;20027;-66
2022/07/04 16:01:12;;;;;;;4.30;1.77;;;;;;;;;;4950415;28;20038;-65
2022/07/04 16:03:58;;;;;;;3.70;1.90;;;;;;;;;;4952656;28;20031;-64
2022/07/04 16:06:44;;;;;;;2.08;1.75;;;;;;;;;;4948971;28;20038;-63
2022/07/04 16:09:30;;;;;;;3.00;1.42;;;;;;;;;;4953528;28;20093;-63
2022/07/04 16:12:15;;;;;;;4.28;1.85;;;;;;;;;;4949834;28;20077;-71
2022/07/04 16:15:01;;;;;;;4.97;1.77;;;;;;;;;;4958077;28;20137;-70
2022/07/04 16:17:47;;;;;;;6.07;1.90;;;;;;;;;;4943154;28;20070;-71
2022/07/04 16:20:32;;;;;;;2.42;1.52;;;;;;;;;;4944419;28;20027;-69
2022/07/04 16:23:18;;;;;;;3.33;1.83;;;;;;;;;;4951572;28;20085;-72
2022/07/04 16:26:03;;;;;;;2.78;2.05;;;;;;;;;;4949467;28;20030;-71
2022/07/04 16:28:49;;;;;;;4.40;1.80;;;;;;;;;;4952301;28;20070;-73
2022/07/04 16:31:35;;;;;;;9.82;1.88;;;;;;;;;;4953460;28;20032;-69
2022/07/04 16:34:21;;;;;;;3.38;1.50;;;;;;;;;;4963686;28;20085;-69
2022/07/04 16:37:06;;;;;;;3.42;1.73;;;;;;;;;;4952525;28;20165;-68
2022/07/04 16:39:52;;;;;;;4.25;1.60;;;;;;;;;;4948670;28;20058;-69
2022/07/04 16:42:37;;;;;;;3.83;1.70;;;;;;;;;;4947765;28;20065;-67
2022/07/04 16:45:23;;;;;;;2.80;1.42;;;;;;;;;;4947906;28;20066;-64
2022/07/04 16:48:09;;;;;;;5.63;1.80;;;;;;;;;;4949238;28;20047;-70
2022/07/04 16:50:54;;;;;;;3.55;1.65;;;;;;;;;;4954391;28;20125;-62
2022/07/04 16:53:40;;;;;;;1.88;1.33;;;;;;;;;;4956975;28;20031;-61
2022/07/04 16:56:25;;;;;;;2.83;1.58;;;;;;;;;;4965511;28;20486;-61
2022/07/04 16:59:11;;;;;;;2.53;1.40;;;;;;;;;;4954475;28;20027;-62
2022/07/04 17:01:56;;;;;;;4.72;1.75;;;;;;;;;;4953542;28;20032;-61
2022/07/04 17:04:42;;;;;;;7.65;3.55;;;;;;;;;;4960729;28;20485;-68
2022/07/04 17:07:28;;;;;;;2.28;1.40;;;;;;;;;;4951603;28;20088;-67